Time;durP1;ratioP1;P1;durP2;ratioP2;P2;SDS_P1;SDS_P2;PMS_P1;PMS_P2;Temp;Humidity;BMP_temperature;BMP_pressure;BME280_temperature;BME280_humidity;BME280_pressure;Samples;Min_cycle;Max_cycle;Signal;HPM_P1;HPM_P2
2022/08/11 00:01:19;;;;;;;7.80;3.30;;;;;;;;;;7388063;19;20002;-92
2022/08/11 00:03:58;;;;;;;5.70;3.00;;;;;;;;;;7387476;19;20010;-93
2022/08/11 00:06:25;;;;;;;7.18;2.92;;;;;;;;;;7389861;19;20010;-91
2022/08/11 00:08:50;;;;;;;6.28;3.05;;;;;;;;;;7389774;19;20018;-93
2022/08/11 00:11:16;;;;;;;8.73;3.13;;;;;;;;;;7387515;19;20003;-92
2022/08/11 00:13:46;;;;;;;8.60;3.40;;;;;;;;;;7395261;19;20014;-92
2022/08/11 00:16:12;;;;;;;8.57;2.97;;;;;;;;;;7416706;19;20014;-93
2022/08/11 00:18:58;;;;;;;7.05;3.40;;;;;;;;;;7415532;19;19991;-92
2022/08/11 00:21:24;;;;;;;8.82;3.10;;;;;;;;;;7420717;19;20011;-93
2022/08/11 00:23:54;;;;;;;6.55;2.65;;;;;;;;;;7417863;19;19994;-93
2022/08/11 00:26:20;;;;;;;8.15;3.33;;;;;;;;;;7420487;19;20015;-93
2022/08/11 00:28:45;;;;;;;7.65;3.20;;;;;;;;;;7421005;19;19999;-92
2022/08/11 00:31:23;;;;;;;6.25;3.28;;;;;;;;;;7422671;19;19998;-93
2022/08/11 00:33:49;;;;;;;6.20;3.08;;;;;;;;;;7423589;19;19999;-93
2022/08/11 00:36:16;;;;;;;6.78;3.20;;;;;;;;;;7429726;19;19978;-94
2022/08/11 00:38:42;;;;;;;6.07;3.00;;;;;;;;;;7428571;19;20253;-93
2022/08/11 00:41:07;;;;;;;6.80;2.97;;;;;;;;;;7429567;19;19987;-93
2022/08/11 00:43:45;;;;;;;9.13;3.28;;;;;;;;;;7405502;19;20018;-92
2022/08/11 00:46:17;;;;;;;8.23;3.13;;;;;;;;;;7394383;19;19995;-93
2022/08/11 00:49:10;;;;;;;7.78;2.80;;;;;;;;;;7400236;19;20030;-93
2022/08/11 00:51:53;;;;;;;7.00;3.08;;;;;;;;;;7397870;19;20020;-92
2022/08/11 00:54:29;;;;;;;9.15;3.50;;;;;;;;;;7399281;19;20006;-92
2022/08/11 00:57:17;;;;;;;5.65;2.42;;;;;;;;;;7394224;19;20017;-93
2022/08/11 00:59:49;;;;;;;6.78;2.70;;;;;;;;;;7390763;19;20365;-91
2022/08/11 01:02:14;;;;;;;6.15;3.10;;;;;;;;;;7386199;19;20467;-86
2022/08/11 01:04:52;;;;;;;9.27;3.65;;;;;;;;;;7383984;19;20022;-86
2022/08/11 01:07:20;;;;;;;8.10;3.65;;;;;;;;;;7384791;19;19999;-86
2022/08/11 01:10:06;;;;;;;5.68;2.72;;;;;;;;;;7378429;19;20018;-86
2022/08/11 01:12:39;;;;;;;5.63;3.20;;;;;;;;;;7383240;19;20007;-86
2022/08/11 01:15:04;;;;;;;7.40;2.95;;;;;;;;;;7384233;19;20097;-86
2022/08/11 01:17:34;;;;;;;6.82;3.00;;;;;;;;;;7386029;19;20020;-85
2022/08/11 01:20:13;;;;;;;8.15;3.63;;;;;;;;;;7380330;19;20026;-86
2022/08/11 01:22:54;;;;;;;7.28;2.95;;;;;;;;;;7384172;19;20043;-86
2022/08/11 01:25:37;;;;;;;5.60;3.20;;;;;;;;;;7377256;19;20110;-86
2022/08/11 01:28:15;;;;;;;7.07;3.60;;;;;;;;;;7383836;19;20014;-86
2022/08/11 01:31:07;;;;;;;7.32;3.25;;;;;;;;;;7380435;19;20065;-86
2022/08/11 01:33:41;;;;;;;10.43;3.25;;;;;;;;;;7383602;19;20010;-86
2022/08/11 01:36:33;;;;;;;6.53;3.00;;;;;;;;;;7381230;19;20006;-86
2022/08/11 01:39:29;;;;;;;9.35;3.28;;;;;;;;;;7379570;19;20006;-86
2022/08/11 01:44:44;;;;;;;6.13;3.28;;;;;;;;;;7382148;19;20110;-86
2022/08/11 01:50:15;;;;;;;5.43;2.80;;;;;;;;;;7381765;19;20092;-87
2022/08/11 01:53:00;;;;;;;12.15;3.80;;;;;;;;;;7381577;19;20018;-86
2022/08/11 01:55:44;;;;;;;7.72;3.22;;;;;;;;;;7376656;19;19998;-86
2022/08/11 01:58:25;;;;;;;8.68;3.42;;;;;;;;;;7382154;19;20019;-86
2022/08/11 02:01:15;;;;;;;8.77;3.30;;;;;;;;;;7381120;19;19999;-86
2022/08/11 02:03:52;;;;;;;8.18;3.15;;;;;;;;;;7381720;19;20010;-86
2022/08/11 02:09:11;;;;;;;8.23;3.42;;;;;;;;;;7377824;19;20360;-86
2022/08/11 02:11:37;;;;;;;6.47;3.13;;;;;;;;;;7378433;19;20002;-86
2022/08/11 02:14:23;;;;;;;8.50;3.10;;;;;;;;;;7382135;19;20002;-87
2022/08/11 02:16:57;;;;;;;7.47;3.60;;;;;;;;;;7379544;19;20479;-86
2022/08/11 02:24:59;;;;;;;6.38;3.33;;;;;;;;;;7377644;19;20001;-86
2022/08/11 02:27:33;;;;;;;8.07;3.15;;;;;;;;;;7381033;19;20021;-87
2022/08/11 02:30:07;;;;;;;8.57;3.05;;;;;;;;;;7380088;19;19998;-87
2022/08/11 02:35:35;;;;;;;5.50;3.17;;;;;;;;;;7378733;19;20029;-86
2022/08/11 02:38:00;;;;;;;7.50;2.92;;;;;;;;;;7380130;19;20472;-86
2022/08/11 02:40:44;;;;;;;7.23;3.30;;;;;;;;;;7378815;19;20010;-87
2022/08/11 02:43:12;;;;;;;10.30;3.33;;;;;;;;;;7383112;19;20040;-86
2022/08/11 02:45:53;;;;;;;7.43;3.30;;;;;;;;;;7378659;19;20002;-86
2022/08/11 02:51:32;;;;;;;6.82;3.13;;;;;;;;;;7379309;19;20021;-86
2022/08/11 02:53:57;;;;;;;;;;;;;;;;;;7378651;19;20003;-86
2022/08/11 02:56:43;;;;;;;7.97;3.90;;;;;;;;;;7380448;19;19925;-86
2022/08/11 03:02:18;;;;;;;6.10;3.10;;;;;;;;;;7380882;19;20606;-86
2022/08/11 03:05:03;;;;;;;6.78;3.05;;;;;;;;;;7378309;19;20082;-86
2022/08/11 03:07:59;;;;;;;7.32;3.22;;;;;;;;;;7376448;19;20551;-86
2022/08/11 03:10:40;;;;;;;6.50;3.47;;;;;;;;;;7377114;19;20010;-86
2022/08/11 03:19:10;;;;;;;8.05;3.17;;;;;;;;;;7379859;19;20022;-86
2022/08/11 03:21:43;;;;;;;7.72;3.75;;;;;;;;;;7378475;19;19999;-86
2022/08/11 03:24:13;;;;;;;8.35;3.22;;;;;;;;;;7374879;19;20025;-86
2022/08/11 03:26:41;;;;;;;7.35;3.50;;;;;;;;;;7377672;19;20015;-86
2022/08/11 03:29:06;;;;;;;7.78;3.30;;;;;;;;;;7379194;19;20671;-86
2022/08/11 03:31:34;;;;;;;7.17;3.60;;;;;;;;;;7377999;19;20030;-86
2022/08/11 03:34:07;;;;;;;7.22;3.78;;;;;;;;;;7380277;19;20554;-86
2022/08/11 03:36:45;;;;;;;6.07;3.25;;;;;;;;;;7379246;19;20070;-86
2022/08/11 03:39:19;;;;;;;6.72;3.47;;;;;;;;;;7378669;19;20022;-86
2022/08/11 03:41:52;;;;;;;6.75;3.13;;;;;;;;;;7379457;19;20510;-86
2022/08/11 03:44:35;;;;;;;6.45;3.40;;;;;;;;;;7378366;19;19994;-86
2022/08/11 03:47:15;;;;;;;6.13;3.03;;;;;;;;;;7379934;19;20010;-86
2022/08/11 03:49:40;;;;;;;10.50;3.15;;;;;;;;;;7384475;19;20006;-86
2022/08/11 03:52:06;;;;;;;6.77;3.60;;;;;;;;;;7383970;19;20063;-86
2022/08/11 03:54:31;;;;;;;7.53;3.67;;;;;;;;;;7383963;19;20271;-86
2022/08/11 03:57:15;;;;;;;6.63;3.67;;;;;;;;;;7384962;19;20014;-87
2022/08/11 04:00:00;;;;;;;7.70;3.78;;;;;;;;;;7388910;19;20003;-87
2022/08/11 04:02:38;;;;;;;6.25;3.42;;;;;;;;;;7384407;19;19999;-86
2022/08/11 04:05:10;;;;;;;9.48;3.55;;;;;;;;;;7382414;19;20002;-86
2022/08/11 04:07:38;;;;;;;10.90;4.03;;;;;;;;;;7388208;19;20014;-88
2022/08/11 04:10:30;;;;;;;7.95;3.80;;;;;;;;;;7380330;19;19994;-85
2022/08/11 04:12:59;;;;;;;6.45;3.40;;;;;;;;;;7384930;19;20014;-86
2022/08/11 04:18:39;;;;;;;9.55;3.88;;;;;;;;;;7387324;19;20021;-89
2022/08/11 04:21:07;;;;;;;5.93;3.50;;;;;;;;;;7385149;19;20003;-88
2022/08/11 04:23:51;;;;;;;8.48;3.47;;;;;;;;;;7385641;19;20026;-88
2022/08/11 04:26:36;;;;;;;6.38;3.63;;;;;;;;;;7387006;19;20487;-87
2022/08/11 04:29:23;;;;;;;9.38;3.78;;;;;;;;;;7386932;19;20015;-87
2022/08/11 04:31:48;;;;;;;7.35;3.50;;;;;;;;;;7387015;19;20002;-87
2022/08/11 04:34:32;;;;;;;9.15;4.20;;;;;;;;;;7387729;19;20037;-88
2022/08/11 04:39:52;;;;;;;;;;;;;;;;;;7394885;19;20033;-88
2022/08/11 04:45:26;;;;;;;7.35;3.63;;;;;;;;;;7389903;19;20304;-86
2022/08/11 05:02:56;;;;;;;6.47;3.60;;;;;;;;;;7391747;19;20040;-86
2022/08/11 05:05:39;;;;;;;8.15;3.60;;;;;;;;;;7387613;19;20002;-87
2022/08/11 05:08:23;;;;;;;8.67;3.70;;;;;;;;;;7388456;19;20022;-87
2022/08/11 05:11:07;;;;;;;6.10;3.42;;;;;;;;;;7387909;19;20483;-87
2022/08/11 05:36:32;;;;;;;7.75;4.07;;;;;;;;;;7390001;19;20018;-87
2022/08/11 05:58:09;;;;;;;8.45;3.47;;;;;;;;;;7411549;19;20018;-85
2022/08/11 06:00:42;;;;;;;7.60;3.70;;;;;;;;;;7410011;19;20011;-85
2022/08/11 06:03:09;;;;;;;8.88;3.33;;;;;;;;;;7414162;19;20001;-85
2022/08/11 06:05:38;;;;;;;7.25;3.75;;;;;;;;;;7413121;19;20027;-85
2022/08/11 06:08:04;;;;;;;7.38;3.33;;;;;;;;;;7406763;19;20014;-85
2022/08/11 06:10:34;;;;;;;6.65;3.40;;;;;;;;;;7394231;19;20010;-85
2022/08/11 06:13:00;;;;;;;6.22;3.65;;;;;;;;;;7390643;19;20423;-85
2022/08/11 06:15:26;;;;;;;7.00;3.30;;;;;;;;;;7386788;19;19999;-86
2022/08/11 06:17:52;;;;;;;6.80;3.55;;;;;;;;;;7389559;19;20006;-85
2022/08/11 06:20:19;;;;;;;7.05;3.60;;;;;;;;;;7389159;19;20337;-85
2022/08/11 06:22:45;;;;;;;9.45;3.55;;;;;;;;;;7389934;19;20037;-85
2022/08/11 06:25:12;;;;;;;7.88;3.60;;;;;;;;;;7385379;19;20025;-85
2022/08/11 06:27:38;;;;;;;8.40;3.33;;;;;;;;;;7389058;19;20011;-84
2022/08/11 06:30:12;;;;;;;7.90;3.17;;;;;;;;;;7388349;19;20351;-85
2022/08/11 06:32:37;;;;;;;7.78;3.20;;;;;;;;;;7388471;19;20081;-85
2022/08/11 06:35:12;;;;;;;9.15;3.30;;;;;;;;;;7387362;19;20024;-85
2022/08/11 06:37:42;;;;;;;7.57;3.30;;;;;;;;;;7388759;19;20057;-85
2022/08/11 06:40:10;;;;;;;7.70;3.47;;;;;;;;;;7386004;19;20002;-85
2022/08/11 06:42:47;;;;;;;8.25;3.45;;;;;;;;;;7386057;19;20090;-85
2022/08/11 06:45:23;;;;;;;5.82;2.80;;;;;;;;;;7385085;19;20002;-85
2022/08/11 06:47:48;;;;;;;6.32;2.90;;;;;;;;;;7389073;19;20034;-84
2022/08/11 06:53:04;;;;;;;7.15;2.78;;;;;;;;;;7389640;19;20033;-85
2022/08/11 07:01:04;;;;;;;8.70;2.70;;;;;;;;;;7387321;19;20035;-86
2022/08/11 07:03:31;;;;;;;6.28;2.67;;;;;;;;;;7387768;19;20248;-86
2022/08/11 07:05:57;;;;;;;9.38;2.65;;;;;;;;;;7385249;19;20002;-86
2022/08/11 07:16:56;;;;;;;7.13;2.60;;;;;;;;;;7389087;19;20017;-86
2022/08/11 07:30:51;;;;;;;7.38;2.70;;;;;;;;;;7395455;19;20066;-86
2022/08/11 07:33:25;;;;;;;5.40;2.60;;;;;;;;;;7393020;19;20010;-86
2022/08/11 07:35:54;;;;;;;7.85;2.58;;;;;;;;;;7393141;19;20175;-86
2022/08/11 07:38:23;;;;;;;8.05;2.92;;;;;;;;;;7393618;19;20040;-86
2022/08/11 07:40:48;;;;;;;5.35;2.55;;;;;;;;;;7393061;19;20002;-86
2022/08/11 07:43:14;;;;;;;10.98;2.80;;;;;;;;;;7393295;19;20476;-86
2022/08/11 07:54:01;;;;;;;6.57;2.50;;;;;;;;;;7394205;19;20440;-86
2022/08/11 07:56:26;;;;;;;7.53;2.58;;;;;;;;;;7392113;19;20341;-86
2022/08/11 08:18:03;;;;;;;8.50;1.92;;;;;;;;;;7393860;19;20398;-87
2022/08/11 08:20:30;;;;;;;7.85;2.10;;;;;;;;;;7392390;19;20011;-87
2022/08/11 08:22:56;;;;;;;6.78;2.83;;;;;;;;;;7392137;19;19995;-87
2022/08/11 08:25:26;;;;;;;7.13;2.42;;;;;;;;;;7389714;19;20511;-87
2022/08/11 08:27:52;;;;;;;5.53;2.42;;;;;;;;;;7390707;19;20021;-87
2022/08/11 08:33:02;;;;;;;6.07;2.30;;;;;;;;;;7400096;19;20009;-87
2022/08/11 08:35:29;;;;;;;6.22;2.40;;;;;;;;;;7388932;19;20019;-87
2022/08/11 08:37:54;;;;;;;4.97;1.80;;;;;;;;;;7392417;19;20076;-89
2022/08/11 08:40:20;;;;;;;4.72;2.00;;;;;;;;;;7390848;19;20055;-87
2022/08/11 08:42:50;;;;;;;8.25;2.30;;;;;;;;;;7390884;19;20009;-86
2022/08/11 08:45:17;;;;;;;5.90;2.33;;;;;;;;;;7389726;19;20008;-86
2022/08/11 08:47:44;;;;;;;5.40;2.30;;;;;;;;;;7392493;19;20022;-87
2022/08/11 08:50:11;;;;;;;6.97;2.28;;;;;;;;;;7388900;19;20025;-86
2022/08/11 08:52:41;;;;;;;5.28;2.17;;;;;;;;;;7391692;19;20011;-87
2022/08/11 08:55:07;;;;;;;5.35;2.10;;;;;;;;;;7390184;19;20006;-87
2022/08/11 08:57:34;;;;;;;4.72;2.15;;;;;;;;;;7391944;19;20018;-87
2022/08/11 09:00:00;;;;;;;6.85;2.17;;;;;;;;;;7391074;19;20024;-87
2022/08/11 09:02:26;;;;;;;6.10;2.30;;;;;;;;;;7390804;19;20023;-87
2022/08/11 09:04:51;;;;;;;6.45;2.30;;;;;;;;;;7389472;19;20014;-87
2022/08/11 09:07:17;;;;;;;5.28;2.22;;;;;;;;;;7387994;19;20002;-86
2022/08/11 09:09:47;;;;;;;6.57;2.20;;;;;;;;;;7388978;19;20010;-87
2022/08/11 09:12:13;;;;;;;6.55;2.35;;;;;;;;;;7389519;19;20010;-86
2022/08/11 09:17:26;;;;;;;7.55;2.63;;;;;;;;;;7392464;19;20025;-86
2022/08/11 09:20:01;;;;;;;6.38;2.10;;;;;;;;;;7390597;19;20006;-86
2022/08/11 09:27:56;;;;;;;6.20;2.50;;;;;;;;;;7391346;19;20018;-86
2022/08/11 09:30:26;;;;;;;4.47;2.10;;;;;;;;;;7390579;19;20006;-87
2022/08/11 09:32:56;;;;;;;5.68;2.22;;;;;;;;;;7388195;19;20078;-86
2022/08/11 09:35:26;;;;;;;7.60;2.40;;;;;;;;;;7389361;19;20042;-87
2022/08/11 09:40:37;;;;;;;9.82;2.63;;;;;;;;;;7388485;19;20006;-87
2022/08/11 09:45:52;;;;;;;6.35;2.22;;;;;;;;;;7386813;19;20032;-87
2022/08/11 09:48:18;;;;;;;7.00;2.50;;;;;;;;;;7389427;19;20488;-86
2022/08/11 09:50:48;;;;;;;7.43;2.30;;;;;;;;;;7388620;19;20041;-86
2022/08/11 09:53:15;;;;;;;4.10;2.05;;;;;;;;;;7388011;19;20015;-85
2022/08/11 09:55:40;;;;;;;5.78;2.28;;;;;;;;;;7385636;19;19998;-86
2022/08/11 09:58:12;;;;;;;6.80;2.22;;;;;;;;;;7390702;19;20010;-85
2022/08/11 10:00:39;;;;;;;9.82;2.50;;;;;;;;;;7387070;19;20071;-86
2022/08/11 10:03:22;;;;;;;9.82;2.20;;;;;;;;;;7390269;19;20007;-86
2022/08/11 10:08:33;;;;;;;6.10;2.35;;;;;;;;;;7387990;19;19975;-85
2022/08/11 10:10:59;;;;;;;7.15;2.47;;;;;;;;;;7388173;19;19999;-86
2022/08/11 10:15:32;;;;;;;8.98;2.90;;;;;;;;;;7389777;19;20011;-86
2022/08/11 10:16:19;;;;;;;10.63;2.15;;;;;;;;;;7388636;19;20014;-86
2022/08/11 10:18:50;;;;;;;7.43;2.50;;;;;;;;;;7388805;19;20013;-86
2022/08/11 10:21:35;;;;;;;7.18;2.40;;;;;;;;;;7388545;19;20296;-86
2022/08/11 10:26:59;;;;;;;7.32;2.40;;;;;;;;;;7388056;19;20002;-87
2022/08/11 10:34:53;;;;;;;7.65;2.70;;;;;;;;;;7387959;19;20493;-87
2022/08/11 10:37:19;;;;;;;9.00;2.83;;;;;;;;;;7388805;19;20029;-86
2022/08/11 10:39:45;;;;;;;6.35;2.47;;;;;;;;;;7386387;19;19994;-86
2022/08/11 10:44:56;;;;;;;8.52;2.20;;;;;;;;;;7387157;19;20018;-87
2022/08/11 10:47:33;;;;;;;5.22;2.15;;;;;;;;;;7387091;19;20492;-85
2022/08/11 11:00:57;;;;;;;6.38;2.63;;;;;;;;;;7396799;19;20024;-87
2022/08/11 11:03:26;;;;;;;11.93;2.75;;;;;;;;;;7395472;19;20069;-85
2022/08/11 11:05:54;;;;;;;4.07;2.05;;;;;;;;;;7390725;19;20082;-86
2022/08/11 11:11:20;;;;;;;10.77;2.70;;;;;;;;;;7396365;19;20011;-86
2022/08/11 11:19:18;;;;;;;6.90;2.47;;;;;;;;;;7395213;19;20046;-86
2022/08/11 11:21:45;;;;;;;5.90;2.40;;;;;;;;;;7397852;19;20046;-86
2022/08/11 11:24:32;;;;;;;4.78;2.20;;;;;;;;;;7399052;19;20010;-86
2022/08/11 11:27:20;;;;;;;8.20;2.30;;;;;;;;;;7404333;19;20007;-84
2022/08/11 11:30:04;;;;;;;13.93;2.40;;;;;;;;;;7405033;19;20010;-84
2022/08/11 11:32:55;;;;;;;5.43;2.40;;;;;;;;;;7409371;19;19998;-85
2022/08/11 11:35:25;;;;;;;8.15;2.40;;;;;;;;;;7415430;19;20007;-86
2022/08/11 11:37:51;;;;;;;6.38;2.35;;;;;;;;;;7415725;19;20066;-86
2022/08/11 11:40:21;;;;;;;9.50;2.75;;;;;;;;;;7412815;19;20006;-87
2022/08/11 11:42:47;;;;;;;10.27;2.63;;;;;;;;;;7415120;19;20010;-85
2022/08/11 11:45:20;;;;;;;5.68;2.13;;;;;;;;;;7410561;19;20017;-86
2022/08/11 11:47:51;;;;;;;7.28;3.15;;;;;;;;;;7410869;19;20011;-84
2022/08/11 11:50:18;;;;;;;8.55;2.90;;;;;;;;;;7397783;19;20452;-86
2022/08/11 11:52:44;;;;;;;7.63;2.63;;;;;;;;;;7394039;19;20025;-84
2022/08/11 11:55:10;;;;;;;7.25;2.80;;;;;;;;;;7391357;19;19997;-84
2022/08/11 12:03:07;;;;;;;6.00;2.38;;;;;;;;;;7395284;19;20364;-87
2022/08/11 12:05:35;;;;;;;7.60;2.88;;;;;;;;;;7390321;19;20010;-85
2022/08/11 12:08:14;;;;;;;6.30;2.30;;;;;;;;;;7391852;19;20007;-85
2022/08/11 12:13:43;;;;;;;8.10;2.28;;;;;;;;;;7394691;19;20023;-85
2022/08/11 12:16:09;;;;;;;7.53;2.30;;;;;;;;;;7391517;19;20025;-85
2022/08/11 12:18:35;;;;;;;6.68;2.75;;;;;;;;;;7393189;19;19995;-85
2022/08/11 12:21:01;;;;;;;7.07;2.53;;;;;;;;;;7391413;19;20022;-84
2022/08/11 12:28:58;;;;;;;10.13;2.60;;;;;;;;;;7393699;19;20539;-85
2022/08/11 12:31:24;;;;;;;15.00;2.63;;;;;;;;;;7393763;19;20011;-85
2022/08/11 12:33:50;;;;;;;7.30;2.30;;;;;;;;;;7391911;19;20015;-85
2022/08/11 12:36:15;;;;;;;6.47;2.13;;;;;;;;;;7392572;19;20009;-85
2022/08/11 12:38:42;;;;;;;7.18;2.20;;;;;;;;;;7391879;19;20043;-85
2022/08/11 12:46:39;;;;;;;8.30;2.72;;;;;;;;;;7393664;19;20021;-85
2022/08/11 12:51:58;;;;;;;;;;;;;;;;;;7391660;19;20035;-85
2022/08/11 12:54:41;;;;;;;7.35;2.85;;;;;;;;;;7391117;19;19974;-84
2022/08/11 13:05:27;;;;;;;7.82;2.60;;;;;;;;;;7389118;19;20008;-85
2022/08/11 13:07:52;;;;;;;8.82;2.40;;;;;;;;;;7392460;19;20007;-85
2022/08/11 13:13:04;;;;;;;7.78;2.50;;;;;;;;;;7392115;19;20038;-85
2022/08/11 13:15:30;;;;;;;7.55;2.15;;;;;;;;;;7391081;19;20015;-85
2022/08/11 13:17:56;;;;;;;6.78;2.10;;;;;;;;;;7389419;19;20011;-85
2022/08/11 13:20:22;;;;;;;7.88;2.10;;;;;;;;;;7387735;19;19999;-85
2022/08/11 13:22:48;;;;;;;7.00;2.45;;;;;;;;;;7389097;19;20503;-84
2022/08/11 13:25:15;;;;;;;6.28;2.33;;;;;;;;;;7388161;19;20018;-85
2022/08/11 13:27:40;;;;;;;7.95;2.53;;;;;;;;;;7390308;19;20021;-84
2022/08/11 13:32:50;;;;;;;6.60;2.80;;;;;;;;;;7391118;19;20394;-85
2022/08/11 13:35:16;;;;;;;8.48;2.50;;;;;;;;;;7388924;19;20369;-85
2022/08/11 13:37:44;;;;;;;5.88;2.40;;;;;;;;;;7390271;19;20037;-84
2022/08/11 13:40:09;;;;;;;5.40;2.40;;;;;;;;;;7388494;19;20058;-84
2022/08/11 13:42:36;;;;;;;5.10;1.95;;;;;;;;;;7389335;19;20011;-85
2022/08/11 13:45:02;;;;;;;8.10;2.35;;;;;;;;;;7389622;19;20003;-85
2022/08/11 13:47:28;;;;;;;6.18;2.30;;;;;;;;;;7390915;19;20361;-84
2022/08/11 13:49:54;;;;;;;7.22;2.63;;;;;;;;;;7388581;19;20022;-85
2022/08/11 13:52:20;;;;;;;6.38;2.10;;;;;;;;;;7390742;19;20014;-85
2022/08/11 13:54:46;;;;;;;6.15;2.55;;;;;;;;;;7388861;19;20014;-84
2022/08/11 13:57:14;;;;;;;7.22;2.42;;;;;;;;;;7390284;19;20005;-85
2022/08/11 13:59:41;;;;;;;9.55;2.40;;;;;;;;;;7390915;19;20018;-85
2022/08/11 14:02:11;;;;;;;7.97;2.30;;;;;;;;;;7388307;19;20358;-85
2022/08/11 14:04:52;;;;;;;6.57;2.38;;;;;;;;;;7388565;19;20009;-85
2022/08/11 14:07:19;;;;;;;8.90;2.35;;;;;;;;;;7389982;19;20020;-84
2022/08/11 14:09:44;;;;;;;7.47;2.70;;;;;;;;;;7388344;19;20026;-85
2022/08/11 14:15:00;;;;;;;6.00;2.58;;;;;;;;;;7388685;19;20034;-84
2022/08/11 14:17:26;;;;;;;10.35;2.35;;;;;;;;;;7387650;19;20460;-84
2022/08/11 14:19:52;;;;;;;9.85;2.67;;;;;;;;;;7387979;19;19996;-84
2022/08/11 14:22:20;;;;;;;6.22;2.25;;;;;;;;;;7388755;19;20030;-85
2022/08/11 14:24:49;;;;;;;5.93;2.60;;;;;;;;;;7387047;19;20094;-85
2022/08/11 14:27:15;;;;;;;8.95;3.08;;;;;;;;;;7387431;19;20011;-84
2022/08/11 14:29:41;;;;;;;7.55;2.78;;;;;;;;;;7389468;19;20027;-85
2022/08/11 14:32:07;;;;;;;7.22;2.40;;;;;;;;;;7388895;19;20010;-85
2022/08/11 14:34:33;;;;;;;7.38;2.67;;;;;;;;;;7388381;19;20003;-86
2022/08/11 14:37:00;;;;;;;5.03;2.30;;;;;;;;;;7387630;19;20010;-85
2022/08/11 14:39:34;;;;;;;10.10;2.55;;;;;;;;;;7386474;19;20003;-85
2022/08/11 14:47:39;;;;;;;6.22;2.60;;;;;;;;;;7387207;19;20011;-86
2022/08/11 14:50:05;;;;;;;5.13;2.10;;;;;;;;;;7385520;19;20405;-85
2022/08/11 14:52:33;;;;;;;7.22;2.60;;;;;;;;;;7388711;19;19995;-85
2022/08/11 14:57:43;;;;;;;6.45;2.50;;;;;;;;;;7388911;19;20044;-85
2022/08/11 15:00:11;;;;;;;6.60;2.40;;;;;;;;;;7386334;19;20014;-85
2022/08/11 15:05:22;;;;;;;7.47;2.45;;;;;;;;;;7385850;19;20019;-85
2022/08/11 15:07:48;;;;;;;7.65;2.63;;;;;;;;;;7388418;19;20006;-86
2022/08/11 15:10:15;;;;;;;5.63;2.38;;;;;;;;;;7385893;19;20007;-85
2022/08/11 15:12:41;;;;;;;9.45;2.47;;;;;;;;;;7387040;19;20014;-85
2022/08/11 15:17:52;;;;;;;5.68;2.38;;;;;;;;;;7388381;19;20019;-85
2022/08/11 15:25:51;;;;;;;9.15;2.65;;;;;;;;;;7383930;19;20350;-85
2022/08/11 15:37:25;;;;;;;6.05;2.30;;;;;;;;;;7388015;19;20013;-85
2022/08/11 15:48:06;;;;;;;7.00;2.30;;;;;;;;;;7395465;19;20078;-84
2022/08/11 15:50:33;;;;;;;5.05;2.20;;;;;;;;;;7393190;19;20018;-85
2022/08/11 15:53:01;;;;;;;6.15;2.80;;;;;;;;;;7394781;19;20007;-85
2022/08/11 15:55:28;;;;;;;8.18;2.20;;;;;;;;;;7390681;19;20484;-86
2022/08/11 16:06:09;;;;;;;7.10;2.67;;;;;;;;;;7391310;19;20394;-85
2022/08/11 16:08:36;;;;;;;5.97;2.40;;;;;;;;;;7392979;19;20037;-85
2022/08/11 16:11:02;;;;;;;9.38;2.00;;;;;;;;;;7388830;19;20483;-86
2022/08/11 16:18:47;;;;;;;7.25;2.13;;;;;;;;;;7393592;19;20006;-85
2022/08/11 16:21:15;;;;;;;9.30;2.58;;;;;;;;;;7392924;19;20002;-85
2022/08/11 16:23:42;;;;;;;7.97;2.47;;;;;;;;;;7390730;19;20527;-86
2022/08/11 16:26:08;;;;;;;6.93;2.30;;;;;;;;;;7387939;19;20366;-85
2022/08/11 16:28:34;;;;;;;5.15;2.38;;;;;;;;;;7394896;19;20022;-85
2022/08/11 16:31:00;;;;;;;6.90;2.45;;;;;;;;;;7391992;19;20011;-85
2022/08/11 16:33:26;;;;;;;8.05;2.20;;;;;;;;;;7393232;19;20452;-85
2022/08/11 16:38:38;;;;;;;5.95;2.28;;;;;;;;;;7392189;19;20030;-85
2022/08/11 16:41:05;;;;;;;7.30;2.63;;;;;;;;;;7393884;19;20003;-85
2022/08/11 16:46:58;;;;;;;7.65;2.45;;;;;;;;;;7400983;19;20095;-85
2022/08/11 16:49:03;;;;;;;7.13;2.30;;;;;;;;;;7407097;19;20013;-86
2022/08/11 16:51:29;;;;;;;8.63;2.20;;;;;;;;;;7405187;19;20007;-86
2022/08/11 16:53:55;;;;;;;6.43;2.45;;;;;;;;;;7411757;19;19998;-85
2022/08/11 16:56:30;;;;;;;9.52;2.50;;;;;;;;;;7405984;19;19990;-85
2022/08/11 16:59:14;;;;;;;5.80;2.63;;;;;;;;;;7414229;19;20047;-85
2022/08/11 17:01:41;;;;;;;5.38;2.35;;;;;;;;;;7410259;19;20005;-85
2022/08/11 17:17:59;;;;;;;7.38;2.65;;;;;;;;;;7391587;19;20033;-86
2022/08/11 17:20:25;;;;;;;12.93;2.70;;;;;;;;;;7389859;19;19986;-86
2022/08/11 17:25:38;;;;;;;10.05;2.80;;;;;;;;;;7387701;19;20010;-86
2022/08/11 17:28:04;;;;;;;8.73;2.40;;;;;;;;;;7390604;19;20014;-86
2022/08/11 17:36:00;;;;;;;8.40;2.70;;;;;;;;;;7390546;19;20013;-86
2022/08/11 17:38:26;;;;;;;9.23;2.72;;;;;;;;;;7388557;19;20468;-85
2022/08/11 17:49:10;;;;;;;9.30;2.83;;;;;;;;;;7390031;19;20422;-86
2022/08/11 17:59:51;;;;;;;7.68;2.72;;;;;;;;;;7390584;19;20016;-86
2022/08/11 18:05:23;;;;;;;10.32;3.00;;;;;;;;;;7387731;19;20008;-86
